sensor_id;sensor_type;location;lat;lon;timestamp;P1;durP1;ratioP1;P2;durP2;ratioP2
6053;SDS011;3055;50.886;14.814;2023-06-24T00:00:10;5.57;;;5.07;;
6053;SDS011;3055;50.886;14.814;2023-06-24T00:02:38;5.70;;;5.20;;
6053;SDS011;3055;50.886;14.814;2023-06-24T00:05:09;5.23;;;4.83;;
6053;SDS011;3055;50.886;14.814;2023-06-24T00:07:36;5.40;;;4.90;;
6053;SDS011;3055;50.886;14.814;2023-06-24T00:10:10;5.63;;;5.07;;
6053;SDS011;3055;50.886;14.814;2023-06-24T00:12:38;6.00;;;5.47;;
6053;SDS011;3055;50.886;14.814;2023-06-24T00:15:06;5.73;;;5.17;;
6053;SDS011;3055;50.886;14.814;2023-06-24T00:17:34;6.30;;;5.70;;
6053;SDS011;3055;50.886;14.814;2023-06-24T00:20:02;6.80;;;5.07;;
6053;SDS011;3055;50.886;14.814;2023-06-24T00:22:32;5.53;;;4.83;;
6053;SDS011;3055;50.886;14.814;2023-06-24T00:24:59;6.17;;;5.63;;
6053;SDS011;3055;50.886;14.814;2023-06-24T00:27:28;7.00;;;5.90;;
6053;SDS011;3055;50.886;14.814;2023-06-24T00:29:55;7.73;;;5.77;;
6053;SDS011;3055;50.886;14.814;2023-06-24T00:32:22;6.23;;;5.63;;
6053;SDS011;3055;50.886;14.814;2023-06-24T00:34:49;5.87;;;5.43;;
6053;SDS011;3055;50.886;14.814;2023-06-24T00:37:16;6.63;;;5.33;;
6053;SDS011;3055;50.886;14.814;2023-06-24T00:39:43;5.93;;;5.43;;
6053;SDS011;3055;50.886;14.814;2023-06-24T00:42:10;6.13;;;5.53;;
6053;SDS011;3055;50.886;14.814;2023-06-24T00:44:38;5.30;;;4.80;;
6053;SDS011;3055;50.886;14.814;2023-06-24T00:47:06;5.93;;;5.07;;
6053;SDS011;3055;50.886;14.814;2023-06-24T00:49:35;5.70;;;4.83;;
6053;SDS011;3055;50.886;14.814;2023-06-24T00:52:02;5.20;;;4.80;;
6053;SDS011;3055;50.886;14.814;2023-06-24T00:54:29;6.07;;;4.40;;
6053;SDS011;3055;50.886;14.814;2023-06-24T00:56:57;5.10;;;4.70;;
6053;SDS011;3055;50.886;14.814;2023-06-24T00:59:26;5.93;;;5.33;;
6053;SDS011;3055;50.886;14.814;2023-06-24T01:01:58;4.70;;;4.30;;
6053;SDS011;3055;50.886;14.814;2023-06-24T01:04:27;4.60;;;4.20;;
6053;SDS011;3055;50.886;14.814;2023-06-24T01:06:54;4.97;;;4.50;;
6053;SDS011;3055;50.886;14.814;2023-06-24T01:09:23;5.33;;;4.83;;
6053;SDS011;3055;50.886;14.814;2023-06-24T01:11:50;4.87;;;4.27;;
6053;SDS011;3055;50.886;14.814;2023-06-24T01:14:18;4.37;;;3.97;;
6053;SDS011;3055;50.886;14.814;2023-06-24T01:16:51;5.07;;;4.33;;
6053;SDS011;3055;50.886;14.814;2023-06-24T01:19:33;5.10;;;4.63;;
6053;SDS011;3055;50.886;14.814;2023-06-24T01:22:15;5.87;;;4.63;;
6053;SDS011;3055;50.886;14.814;2023-06-24T01:25:02;4.23;;;3.83;;
6053;SDS011;3055;50.886;14.814;2023-06-24T01:27:45;4.80;;;4.30;;
6053;SDS011;3055;50.886;14.814;2023-06-24T01:30:38;4.87;;;4.40;;
6053;SDS011;3055;50.886;14.814;2023-06-24T01:33:19;4.47;;;4.17;;
6053;SDS011;3055;50.886;14.814;2023-06-24T01:35:51;3.97;;;3.67;;
6053;SDS011;3055;50.886;14.814;2023-06-24T01:38:22;4.20;;;3.60;;
6053;SDS011;3055;50.886;14.814;2023-06-24T01:40:53;4.50;;;4.07;;
6053;SDS011;3055;50.886;14.814;2023-06-24T01:43:21;4.37;;;3.93;;
6053;SDS011;3055;50.886;14.814;2023-06-24T01:45:50;4.00;;;3.60;;
6053;SDS011;3055;50.886;14.814;2023-06-24T01:48:22;4.50;;;4.10;;
6053;SDS011;3055;50.886;14.814;2023-06-24T01:50:54;4.50;;;3.60;;
6053;SDS011;3055;50.886;14.814;2023-06-24T01:53:24;4.03;;;3.50;;
6053;SDS011;3055;50.886;14.814;2023-06-24T01:55:53;3.63;;;3.33;;
6053;SDS011;3055;50.886;14.814;2023-06-24T01:58:23;3.27;;;3.07;;
6053;SDS011;3055;50.886;14.814;2023-06-24T02:00:50;4.50;;;3.67;;
6053;SDS011;3055;50.886;14.814;2023-06-24T02:03:18;4.10;;;3.70;;
6053;SDS011;3055;50.886;14.814;2023-06-24T02:05:47;6.43;;;3.73;;
6053;SDS011;3055;50.886;14.814;2023-06-24T02:08:16;4.53;;;3.60;;
6053;SDS011;3055;50.886;14.814;2023-06-24T02:10:44;4.27;;;3.97;;
6053;SDS011;3055;50.886;14.814;2023-06-24T02:13:12;4.33;;;3.93;;
6053;SDS011;3055;50.886;14.814;2023-06-24T02:15:40;3.73;;;3.43;;
6053;SDS011;3055;50.886;14.814;2023-06-24T02:18:09;5.07;;;3.97;;
6053;SDS011;3055;50.886;14.814;2023-06-24T02:20:39;4.40;;;3.80;;
6053;SDS011;3055;50.886;14.814;2023-06-24T02:23:08;4.00;;;3.70;;
6053;SDS011;3055;50.886;14.814;2023-06-24T02:25:36;4.30;;;3.90;;
6053;SDS011;3055;50.886;14.814;2023-06-24T02:28:05;4.30;;;3.90;;
6053;SDS011;3055;50.886;14.814;2023-06-24T02:30:33;4.03;;;3.60;;
6053;SDS011;3055;50.886;14.814;2023-06-24T02:33:02;4.87;;;4.17;;
6053;SDS011;3055;50.886;14.814;2023-06-24T02:35:29;5.83;;;3.83;;
6053;SDS011;3055;50.886;14.814;2023-06-24T02:37:57;4.47;;;4.07;;
6053;SDS011;3055;50.886;14.814;2023-06-24T02:40:24;5.27;;;3.73;;
6053;SDS011;3055;50.886;14.814;2023-06-24T02:42:53;4.53;;;3.60;;
6053;SDS011;3055;50.886;14.814;2023-06-24T02:45:20;3.73;;;3.43;;
6053;SDS011;3055;50.886;14.814;2023-06-24T02:47:48;5.63;;;3.77;;
6053;SDS011;3055;50.886;14.814;2023-06-24T02:50:16;3.90;;;3.50;;
6053;SDS011;3055;50.886;14.814;2023-06-24T02:52:44;4.97;;;3.63;;
6053;SDS011;3055;50.886;14.814;2023-06-24T02:55:13;3.90;;;3.60;;
6053;SDS011;3055;50.886;14.814;2023-06-24T02:57:41;4.43;;;3.67;;
6053;SDS011;3055;50.886;14.814;2023-06-24T03:00:09;4.10;;;3.70;;
6053;SDS011;3055;50.886;14.814;2023-06-24T03:02:39;4.07;;;3.77;;
6053;SDS011;3055;50.886;14.814;2023-06-24T03:05:08;4.10;;;3.30;;
6053;SDS011;3055;50.886;14.814;2023-06-24T03:07:35;4.87;;;4.37;;
6053;SDS011;3055;50.886;14.814;2023-06-24T03:10:04;4.43;;;3.93;;
6053;SDS011;3055;50.886;14.814;2023-06-24T03:12:33;4.27;;;3.87;;
6053;SDS011;3055;50.886;14.814;2023-06-24T03:15:00;4.43;;;4.03;;
6053;SDS011;3055;50.886;14.814;2023-06-24T03:17:29;4.90;;;4.37;;
6053;SDS011;3055;50.886;14.814;2023-06-24T03:19:56;5.37;;;4.00;;
6053;SDS011;3055;50.886;14.814;2023-06-24T03:22:23;4.20;;;3.80;;
6053;SDS011;3055;50.886;14.814;2023-06-24T03:24:50;4.77;;;4.27;;
6053;SDS011;3055;50.886;14.814;2023-06-24T03:27:18;4.30;;;3.93;;
6053;SDS011;3055;50.886;14.814;2023-06-24T03:29:46;5.50;;;4.67;;
6053;SDS011;3055;50.886;14.814;2023-06-24T03:32:14;5.13;;;4.67;;
6053;SDS011;3055;50.886;14.814;2023-06-24T03:34:41;4.50;;;4.10;;
6053;SDS011;3055;50.886;14.814;2023-06-24T03:37:08;5.47;;;4.97;;
6053;SDS011;3055;50.886;14.814;2023-06-24T03:39:35;4.87;;;4.40;;
6053;SDS011;3055;50.886;14.814;2023-06-24T03:42:02;4.90;;;4.40;;
6053;SDS011;3055;50.886;14.814;2023-06-24T03:44:29;4.50;;;4.10;;
6053;SDS011;3055;50.886;14.814;2023-06-24T03:46:58;4.77;;;4.37;;
6053;SDS011;3055;50.886;14.814;2023-06-24T03:49:25;5.00;;;4.60;;
6053;SDS011;3055;50.886;14.814;2023-06-24T03:51:52;6.40;;;4.70;;
6053;SDS011;3055;50.886;14.814;2023-06-24T03:54:19;4.73;;;4.33;;
6053;SDS011;3055;50.886;14.814;2023-06-24T03:56:46;8.27;;;4.50;;
6053;SDS011;3055;50.886;14.814;2023-06-24T03:59:13;4.87;;;4.47;;
6053;SDS011;3055;50.886;14.814;2023-06-24T04:01:40;4.90;;;4.40;;
6053;SDS011;3055;50.886;14.814;2023-06-24T04:04:08;4.87;;;4.47;;
6053;SDS011;3055;50.886;14.814;2023-06-24T04:06:35;5.23;;;4.43;;
6053;SDS011;3055;50.886;14.814;2023-06-24T04:09:04;5.10;;;4.60;;
6053;SDS011;3055;50.886;14.814;2023-06-24T04:11:33;5.17;;;4.27;;
6053;SDS011;3055;50.886;14.814;2023-06-24T04:14:00;5.07;;;4.53;;
6053;SDS011;3055;50.886;14.814;2023-06-24T04:16:31;4.93;;;4.23;;
6053;SDS011;3055;50.886;14.814;2023-06-24T04:18:58;4.90;;;4.40;;
6053;SDS011;3055;50.886;14.814;2023-06-24T04:21:27;5.27;;;4.77;;
6053;SDS011;3055;50.886;14.814;2023-06-24T04:23:55;4.33;;;3.93;;
6053;SDS011;3055;50.886;14.814;2023-06-24T04:26:22;5.27;;;4.37;;
6053;SDS011;3055;50.886;14.814;2023-06-24T04:28:49;10.30;;;5.57;;
6053;SDS011;3055;50.886;14.814;2023-06-24T04:31:16;5.67;;;5.17;;
6053;SDS011;3055;50.886;14.814;2023-06-24T04:33:43;5.90;;;5.37;;
6053;SDS011;3055;50.886;14.814;2023-06-24T04:36:10;5.80;;;5.20;;
6053;SDS011;3055;50.886;14.814;2023-06-24T04:38:39;8.40;;;5.53;;
6053;SDS011;3055;50.886;14.814;2023-06-24T04:41:06;6.07;;;5.47;;
6053;SDS011;3055;50.886;14.814;2023-06-24T04:43:33;7.33;;;5.40;;
6053;SDS011;3055;50.886;14.814;2023-06-24T04:46:00;6.33;;;5.73;;
6053;SDS011;3055;50.886;14.814;2023-06-24T04:48:27;5.37;;;4.87;;
6053;SDS011;3055;50.886;14.814;2023-06-24T04:50:54;6.97;;;5.17;;
6053;SDS011;3055;50.886;14.814;2023-06-24T04:53:23;6.17;;;5.57;;
6053;SDS011;3055;50.886;14.814;2023-06-24T04:55:51;5.70;;;5.20;;
6053;SDS011;3055;50.886;14.814;2023-06-24T04:58:18;6.27;;;5.63;;
6053;SDS011;3055;50.886;14.814;2023-06-24T05:00:45;7.87;;;5.83;;
6053;SDS011;3055;50.886;14.814;2023-06-24T05:03:12;8.00;;;6.40;;
6053;SDS011;3055;50.886;14.814;2023-06-24T05:05:39;7.93;;;5.53;;
6053;SDS011;3055;50.886;14.814;2023-06-24T05:08:06;6.50;;;5.90;;
6053;SDS011;3055;50.886;14.814;2023-06-24T05:10:33;7.13;;;6.00;;
6053;SDS011;3055;50.886;14.814;2023-06-24T05:13:02;8.60;;;6.40;;
6053;SDS011;3055;50.886;14.814;2023-06-24T05:15:29;6.80;;;5.70;;
6053;SDS011;3055;50.886;14.814;2023-06-24T05:17:56;5.37;;;4.87;;
6053;SDS011;3055;50.886;14.814;2023-06-24T05:20:23;7.13;;;5.87;;
6053;SDS011;3055;50.886;14.814;2023-06-24T05:22:50;6.20;;;5.60;;
6053;SDS011;3055;50.886;14.814;2023-06-24T05:25:17;9.13;;;5.63;;
6053;SDS011;3055;50.886;14.814;2023-06-24T05:27:44;6.40;;;5.90;;
6053;SDS011;3055;50.886;14.814;2023-06-24T05:30:13;6.20;;;5.60;;
6053;SDS011;3055;50.886;14.814;2023-06-24T05:32:40;7.30;;;5.73;;
6053;SDS011;3055;50.886;14.814;2023-06-24T05:35:07;6.20;;;5.60;;
6053;SDS011;3055;50.886;14.814;2023-06-24T05:37:34;6.90;;;5.90;;
6053;SDS011;3055;50.886;14.814;2023-06-24T05:40:01;7.23;;;6.47;;
6053;SDS011;3055;50.886;14.814;2023-06-24T05:42:30;8.00;;;5.97;;
6053;SDS011;3055;50.886;14.814;2023-06-24T05:44:57;6.73;;;5.60;;
6053;SDS011;3055;50.886;14.814;2023-06-24T05:47:25;7.20;;;6.40;;
6053;SDS011;3055;50.886;14.814;2023-06-24T05:49:52;7.23;;;6.50;;
6053;SDS011;3055;50.886;14.814;2023-06-24T05:52:22;10.60;;;6.87;;
6053;SDS011;3055;50.886;14.814;2023-06-24T05:54:49;10.60;;;7.57;;
6053;SDS011;3055;50.886;14.814;2023-06-24T05:57:16;9.77;;;8.27;;
6053;SDS011;3055;50.886;14.814;2023-06-24T05:59:43;13.57;;;7.57;;
6053;SDS011;3055;50.886;14.814;2023-06-24T06:02:10;9.10;;;8.20;;
6053;SDS011;3055;50.886;14.814;2023-06-24T06:04:39;10.40;;;8.07;;
6053;SDS011;3055;50.886;14.814;2023-06-24T06:07:06;9.00;;;8.20;;
6053;SDS011;3055;50.886;14.814;2023-06-24T06:09:33;9.23;;;8.30;;
6053;SDS011;3055;50.886;14.814;2023-06-24T06:12:00;10.87;;;8.40;;
6053;SDS011;3055;50.886;14.814;2023-06-24T06:14:28;8.30;;;7.50;;
6053;SDS011;3055;50.886;14.814;2023-06-24T06:16:55;8.77;;;7.50;;
6053;SDS011;3055;50.886;14.814;2023-06-24T06:19:22;9.60;;;8.60;;
6053;SDS011;3055;50.886;14.814;2023-06-24T06:21:50;9.40;;;8.03;;
6053;SDS011;3055;50.886;14.814;2023-06-24T06:24:20;9.43;;;8.43;;
6053;SDS011;3055;50.886;14.814;2023-06-24T06:26:50;13.17;;;9.00;;
6053;SDS011;3055;50.886;14.814;2023-06-24T06:29:17;9.80;;;8.50;;
6053;SDS011;3055;50.886;14.814;2023-06-24T06:31:44;8.33;;;7.63;;
6053;SDS011;3055;50.886;14.814;2023-06-24T06:34:11;9.97;;;9.07;;
6053;SDS011;3055;50.886;14.814;2023-06-24T06:36:38;10.27;;;9.00;;
6053;SDS011;3055;50.886;14.814;2023-06-24T06:39:06;11.00;;;9.77;;
6053;SDS011;3055;50.886;14.814;2023-06-24T06:41:33;11.07;;;9.97;;
6053;SDS011;3055;50.886;14.814;2023-06-24T06:44:00;11.73;;;10.53;;
6053;SDS011;3055;50.886;14.814;2023-06-24T06:46:27;16.23;;;10.77;;
6053;SDS011;3055;50.886;14.814;2023-06-24T06:48:54;12.30;;;10.90;;
6053;SDS011;3055;50.886;14.814;2023-06-24T06:51:21;11.43;;;9.53;;
6053;SDS011;3055;50.886;14.814;2023-06-24T06:53:49;19.17;;;15.33;;
6053;SDS011;3055;50.886;14.814;2023-06-24T06:56:18;17.13;;;15.43;;
6053;SDS011;3055;50.886;14.814;2023-06-24T06:58:45;19.17;;;17.17;;
6053;SDS011;3055;50.886;14.814;2023-06-24T07:01:12;18.23;;;16.30;;
6053;SDS011;3055;50.886;14.814;2023-06-24T07:03:39;16.70;;;15.20;;
6053;SDS011;3055;50.886;14.814;2023-06-24T07:06:06;16.80;;;15.20;;
6053;SDS011;3055;50.886;14.814;2023-06-24T07:08:33;17.23;;;15.37;;
6053;SDS011;3055;50.886;14.814;2023-06-24T07:11:01;17.43;;;15.63;;
6053;SDS011;3055;50.886;14.814;2023-06-24T07:13:29;18.00;;;16.10;;
6053;SDS011;3055;50.886;14.814;2023-06-24T07:15:56;18.03;;;16.10;;
6053;SDS011;3055;50.886;14.814;2023-06-24T07:18:23;16.53;;;15.00;;
6053;SDS011;3055;50.886;14.814;2023-06-24T07:20:55;17.33;;;15.53;;
6053;SDS011;3055;50.886;14.814;2023-06-24T07:23:22;16.27;;;14.87;;
6053;SDS011;3055;50.886;14.814;2023-06-24T07:25:49;18.27;;;16.33;;
6053;SDS011;3055;50.886;14.814;2023-06-24T07:28:19;19.40;;;16.30;;
6053;SDS011;3055;50.886;14.814;2023-06-24T07:30:47;17.97;;;16.17;;
6053;SDS011;3055;50.886;14.814;2023-06-24T07:33:14;17.73;;;16.03;;
6053;SDS011;3055;50.886;14.814;2023-06-24T07:35:41;16.37;;;14.77;;
6053;SDS011;3055;50.886;14.814;2023-06-24T07:38:09;18.73;;;16.87;;
6053;SDS011;3055;50.886;14.814;2023-06-24T07:40:36;18.23;;;15.47;;
6053;SDS011;3055;50.886;14.814;2023-06-24T07:43:03;15.83;;;14.43;;
6053;SDS011;3055;50.886;14.814;2023-06-24T07:45:30;15.40;;;13.90;;
6053;SDS011;3055;50.886;14.814;2023-06-24T07:47:58;16.70;;;15.17;;
6053;SDS011;3055;50.886;14.814;2023-06-24T07:50:25;18.13;;;16.47;;
6053;SDS011;3055;50.886;14.814;2023-06-24T07:52:52;16.90;;;15.40;;
6053;SDS011;3055;50.886;14.814;2023-06-24T07:55:19;17.17;;;15.67;;
6053;SDS011;3055;50.886;14.814;2023-06-24T07:57:46;16.30;;;14.80;;
6053;SDS011;3055;50.886;14.814;2023-06-24T08:00:14;15.07;;;13.67;;
6053;SDS011;3055;50.886;14.814;2023-06-24T08:02:42;12.97;;;11.77;;
6053;SDS011;3055;50.886;14.814;2023-06-24T08:05:10;11.53;;;10.33;;
6053;SDS011;3055;50.886;14.814;2023-06-24T08:07:38;12.70;;;11.40;;
6053;SDS011;3055;50.886;14.814;2023-06-24T08:10:05;13.10;;;11.73;;
6053;SDS011;3055;50.886;14.814;2023-06-24T08:12:33;11.40;;;10.37;;
6053;SDS011;3055;50.886;14.814;2023-06-24T08:15:00;14.00;;;12.80;;
6053;SDS011;3055;50.886;14.814;2023-06-24T08:17:27;12.50;;;11.20;;
6053;SDS011;3055;50.886;14.814;2023-06-24T08:19:54;14.73;;;13.33;;
6053;SDS011;3055;50.886;14.814;2023-06-24T08:22:22;15.47;;;13.03;;
6053;SDS011;3055;50.886;14.814;2023-06-24T08:24:49;13.07;;;11.63;;
6053;SDS011;3055;50.886;14.814;2023-06-24T08:27:16;13.10;;;11.80;;
6053;SDS011;3055;50.886;14.814;2023-06-24T08:29:55;12.60;;;11.50;;
6053;SDS011;3055;50.886;14.814;2023-06-24T08:32:22;13.17;;;11.97;;
6053;SDS011;3055;50.886;14.814;2023-06-24T08:34:50;12.77;;;11.23;;
6053;SDS011;3055;50.886;14.814;2023-06-24T08:37:17;11.70;;;10.60;;
6053;SDS011;3055;50.886;14.814;2023-06-24T08:39:45;10.50;;;9.40;;
6053;SDS011;3055;50.886;14.814;2023-06-24T08:42:12;12.47;;;8.50;;
6053;SDS011;3055;50.886;14.814;2023-06-24T08:44:39;9.43;;;8.57;;
6053;SDS011;3055;50.886;14.814;2023-06-24T08:47:06;8.60;;;7.83;;
6053;SDS011;3055;50.886;14.814;2023-06-24T08:49:34;9.67;;;8.67;;
6053;SDS011;3055;50.886;14.814;2023-06-24T08:52:12;7.83;;;6.90;;
6053;SDS011;3055;50.886;14.814;2023-06-24T08:54:41;7.40;;;6.60;;
6053;SDS011;3055;50.886;14.814;2023-06-24T08:57:12;12.37;;;6.93;;
6053;SDS011;3055;50.886;14.814;2023-06-24T08:59:40;8.10;;;7.30;;
6053;SDS011;3055;50.886;14.814;2023-06-24T09:02:11;7.60;;;6.80;;
6053;SDS011;3055;50.886;14.814;2023-06-24T09:04:39;7.43;;;6.50;;
6053;SDS011;3055;50.886;14.814;2023-06-24T09:07:07;7.60;;;6.80;;
6053;SDS011;3055;50.886;14.814;2023-06-24T09:09:41;6.57;;;5.87;;
6053;SDS011;3055;50.886;14.814;2023-06-24T09:12:10;7.47;;;6.10;;
6053;SDS011;3055;50.886;14.814;2023-06-24T09:14:40;7.00;;;6.30;;
6053;SDS011;3055;50.886;14.814;2023-06-24T09:17:08;7.30;;;5.97;;
6053;SDS011;3055;50.886;14.814;2023-06-24T09:19:36;7.73;;;6.17;;
6053;SDS011;3055;50.886;14.814;2023-06-24T09:22:03;6.50;;;5.57;;
6053;SDS011;3055;50.886;14.814;2023-06-24T09:24:31;7.37;;;6.27;;
6053;SDS011;3055;50.886;14.814;2023-06-24T09:26:58;7.50;;;6.80;;
6053;SDS011;3055;50.886;14.814;2023-06-24T09:29:28;7.20;;;6.50;;
6053;SDS011;3055;50.886;14.814;2023-06-24T09:31:59;7.37;;;6.63;;
6053;SDS011;3055;50.886;14.814;2023-06-24T09:34:26;6.00;;;5.50;;
6053;SDS011;3055;50.886;14.814;2023-06-24T09:36:55;6.63;;;5.90;;
6053;SDS011;3055;50.886;14.814;2023-06-24T09:39:24;7.33;;;6.00;;
6053;SDS011;3055;50.886;14.814;2023-06-24T09:41:54;6.40;;;5.80;;
6053;SDS011;3055;50.886;14.814;2023-06-24T09:44:21;7.10;;;5.80;;
6053;SDS011;3055;50.886;14.814;2023-06-24T09:46:50;6.13;;;5.53;;
6053;SDS011;3055;50.886;14.814;2023-06-24T09:49:18;6.57;;;5.93;;
6053;SDS011;3055;50.886;14.814;2023-06-24T09:51:45;7.57;;;6.17;;
6053;SDS011;3055;50.886;14.814;2023-06-24T09:54:13;7.23;;;5.40;;
6053;SDS011;3055;50.886;14.814;2023-06-24T09:56:42;6.47;;;5.87;;
6053;SDS011;3055;50.886;14.814;2023-06-24T09:59:12;6.93;;;5.60;;
6053;SDS011;3055;50.886;14.814;2023-06-24T10:01:40;7.97;;;7.07;;
6053;SDS011;3055;50.886;14.814;2023-06-24T10:04:12;7.37;;;6.10;;
6053;SDS011;3055;50.886;14.814;2023-06-24T10:06:42;6.40;;;5.80;;
6053;SDS011;3055;50.886;14.814;2023-06-24T10:09:09;6.37;;;5.67;;
6053;SDS011;3055;50.886;14.814;2023-06-24T10:11:38;7.90;;;5.87;;
6053;SDS011;3055;50.886;14.814;2023-06-24T10:14:05;8.77;;;5.70;;
6053;SDS011;3055;50.886;14.814;2023-06-24T10:16:33;11.93;;;6.33;;
6053;SDS011;3055;50.886;14.814;2023-06-24T10:19:00;8.43;;;6.43;;
6053;SDS011;3055;50.886;14.814;2023-06-24T10:24:31;8.27;;;6.23;;
6053;SDS011;3055;50.886;14.814;2023-06-24T10:27:03;10.57;;;6.93;;
6053;SDS011;3055;50.886;14.814;2023-06-24T10:29:31;8.07;;;7.03;;
6053;SDS011;3055;50.886;14.814;2023-06-24T10:32:03;6.97;;;6.30;;
6053;SDS011;3055;50.886;14.814;2023-06-24T10:34:34;8.00;;;7.17;;
6053;SDS011;3055;50.886;14.814;2023-06-24T10:37:08;8.43;;;7.03;;
6053;SDS011;3055;50.886;14.814;2023-06-24T10:45:14;7.07;;;6.37;;
6053;SDS011;3055;50.886;14.814;2023-06-24T10:47:44;6.67;;;6.00;;
6053;SDS011;3055;50.886;14.814;2023-06-24T10:50:12;7.70;;;6.13;;
6053;SDS011;3055;50.886;14.814;2023-06-24T10:52:40;7.57;;;6.87;;
6053;SDS011;3055;50.886;14.814;2023-06-24T10:55:08;7.30;;;6.60;;
6053;SDS011;3055;50.886;14.814;2023-06-24T10:57:36;7.97;;;7.03;;
6053;SDS011;3055;50.886;14.814;2023-06-24T11:00:05;8.10;;;7.37;;
6053;SDS011;3055;50.886;14.814;2023-06-24T11:02:33;7.67;;;6.97;;
6053;SDS011;3055;50.886;14.814;2023-06-24T11:05:02;7.37;;;6.60;;
6053;SDS011;3055;50.886;14.814;2023-06-24T11:07:31;7.30;;;6.70;;
6053;SDS011;3055;50.886;14.814;2023-06-24T11:10:01;7.60;;;6.90;;
6053;SDS011;3055;50.886;14.814;2023-06-24T11:12:30;7.20;;;6.50;;
6053;SDS011;3055;50.886;14.814;2023-06-24T11:14:58;7.10;;;5.87;;
6053;SDS011;3055;50.886;14.814;2023-06-24T11:17:27;7.03;;;6.30;;
6053;SDS011;3055;50.886;14.814;2023-06-24T11:19:54;5.80;;;5.30;;
6053;SDS011;3055;50.886;14.814;2023-06-24T11:22:22;6.60;;;6.00;;
6053;SDS011;3055;50.886;14.814;2023-06-24T11:24:50;5.87;;;5.40;;
6053;SDS011;3055;50.886;14.814;2023-06-24T11:27:23;6.30;;;5.77;;
6053;SDS011;3055;50.886;14.814;2023-06-24T11:29:52;6.50;;;5.90;;
6053;SDS011;3055;50.886;14.814;2023-06-24T11:32:20;6.87;;;6.17;;
6053;SDS011;3055;50.886;14.814;2023-06-24T11:34:49;6.00;;;5.40;;
6053;SDS011;3055;50.886;14.814;2023-06-24T11:37:16;6.67;;;5.67;;
6053;SDS011;3055;50.886;14.814;2023-06-24T11:39:44;7.20;;;6.27;;
6053;SDS011;3055;50.886;14.814;2023-06-24T11:42:27;6.07;;;5.47;;
6053;SDS011;3055;50.886;14.814;2023-06-24T11:44:58;6.27;;;5.40;;
6053;SDS011;3055;50.886;14.814;2023-06-24T11:47:26;6.40;;;5.20;;
6053;SDS011;3055;50.886;14.814;2023-06-24T11:49:57;6.27;;;5.17;;
6053;SDS011;3055;50.886;14.814;2023-06-24T11:55:12;5.90;;;5.40;;
6053;SDS011;3055;50.886;14.814;2023-06-24T11:57:49;6.70;;;5.97;;
6053;SDS011;3055;50.886;14.814;2023-06-24T12:00:19;5.10;;;4.70;;
6053;SDS011;3055;50.886;14.814;2023-06-24T12:02:49;5.97;;;5.47;;
6053;SDS011;3055;50.886;14.814;2023-06-24T12:05:21;6.27;;;5.67;;
6053;SDS011;3055;50.886;14.814;2023-06-24T12:07:53;5.93;;;5.37;;
6053;SDS011;3055;50.886;14.814;2023-06-24T12:10:21;5.97;;;5.37;;
6053;SDS011;3055;50.886;14.814;2023-06-24T12:12:49;6.00;;;5.37;;
6053;SDS011;3055;50.886;14.814;2023-06-24T12:15:16;6.40;;;5.80;;
6053;SDS011;3055;50.886;14.814;2023-06-24T12:17:43;6.47;;;5.73;;
6053;SDS011;3055;50.886;14.814;2023-06-24T12:20:11;7.37;;;5.77;;
6053;SDS011;3055;50.886;14.814;2023-06-24T12:22:40;7.40;;;5.63;;
6053;SDS011;3055;50.886;14.814;2023-06-24T12:25:08;6.63;;;6.10;;
6053;SDS011;3055;50.886;14.814;2023-06-24T12:27:35;7.20;;;6.23;;
6053;SDS011;3055;50.886;14.814;2023-06-24T12:30:05;5.93;;;5.33;;
6053;SDS011;3055;50.886;14.814;2023-06-24T12:32:34;6.43;;;5.83;;
6053;SDS011;3055;50.886;14.814;2023-06-24T12:35:02;7.03;;;5.43;;
6053;SDS011;3055;50.886;14.814;2023-06-24T12:37:30;6.20;;;5.60;;
6053;SDS011;3055;50.886;14.814;2023-06-24T12:39:59;7.40;;;5.73;;
6053;SDS011;3055;50.886;14.814;2023-06-24T12:42:27;5.93;;;5.33;;
6053;SDS011;3055;50.886;14.814;2023-06-24T12:44:54;5.90;;;5.20;;
6053;SDS011;3055;50.886;14.814;2023-06-24T12:47:21;7.37;;;6.50;;
6053;SDS011;3055;50.886;14.814;2023-06-24T12:49:48;6.00;;;5.40;;
6053;SDS011;3055;50.886;14.814;2023-06-24T12:52:16;8.73;;;5.83;;
6053;SDS011;3055;50.886;14.814;2023-06-24T12:54:43;6.90;;;5.63;;
6053;SDS011;3055;50.886;14.814;2023-06-24T12:57:11;6.90;;;5.60;;
6053;SDS011;3055;50.886;14.814;2023-06-24T12:59:38;5.87;;;5.37;;
6053;SDS011;3055;50.886;14.814;2023-06-24T13:02:06;5.40;;;4.90;;
6053;SDS011;3055;50.886;14.814;2023-06-24T13:04:33;5.80;;;4.97;;
6053;SDS011;3055;50.886;14.814;2023-06-24T13:07:00;8.60;;;5.67;;
6053;SDS011;3055;50.886;14.814;2023-06-24T13:09:28;6.03;;;5.43;;
6053;SDS011;3055;50.886;14.814;2023-06-24T13:11:55;5.77;;;5.13;;
6053;SDS011;3055;50.886;14.814;2023-06-24T13:14:24;6.70;;;5.37;;
6053;SDS011;3055;50.886;14.814;2023-06-24T13:16:53;5.43;;;4.93;;
6053;SDS011;3055;50.886;14.814;2023-06-24T13:19:20;5.07;;;4.67;;
6053;SDS011;3055;50.886;14.814;2023-06-24T13:21:47;5.30;;;4.37;;
6053;SDS011;3055;50.886;14.814;2023-06-24T13:24:14;6.47;;;4.63;;
6053;SDS011;3055;50.886;14.814;2023-06-24T13:26:41;4.47;;;4.07;;
6053;SDS011;3055;50.886;14.814;2023-06-24T13:29:08;4.77;;;4.30;;
6053;SDS011;3055;50.886;14.814;2023-06-24T13:31:37;6.77;;;4.57;;
6053;SDS011;3055;50.886;14.814;2023-06-24T13:34:04;5.70;;;4.70;;
6053;SDS011;3055;50.886;14.814;2023-06-24T13:36:31;4.17;;;3.77;;
6053;SDS011;3055;50.886;14.814;2023-06-24T13:39:00;4.57;;;4.17;;
6053;SDS011;3055;50.886;14.814;2023-06-24T13:41:28;4.27;;;3.87;;
6053;SDS011;3055;50.886;14.814;2023-06-24T13:43:57;4.80;;;4.40;;
6053;SDS011;3055;50.886;14.814;2023-06-24T13:46:25;5.13;;;4.30;;
6053;SDS011;3055;50.886;14.814;2023-06-24T13:48:54;8.20;;;4.30;;
6053;SDS011;3055;50.886;14.814;2023-06-24T13:51:21;7.23;;;4.10;;
6053;SDS011;3055;50.886;14.814;2023-06-24T13:53:49;4.50;;;3.90;;
6053;SDS011;3055;50.886;14.814;2023-06-24T13:56:17;5.07;;;4.20;;
6053;SDS011;3055;50.886;14.814;2023-06-24T13:58:45;5.87;;;4.03;;
6053;SDS011;3055;50.886;14.814;2023-06-24T14:01:13;4.83;;;3.93;;
6053;SDS011;3055;50.886;14.814;2023-06-24T14:03:40;5.37;;;4.40;;
6053;SDS011;3055;50.886;14.814;2023-06-24T14:06:09;4.60;;;4.20;;
6053;SDS011;3055;50.886;14.814;2023-06-24T14:08:36;4.53;;;4.13;;
6053;SDS011;3055;50.886;14.814;2023-06-24T14:11:03;4.40;;;3.83;;
6053;SDS011;3055;50.886;14.814;2023-06-24T14:13:30;5.37;;;4.37;;
6053;SDS011;3055;50.886;14.814;2023-06-24T14:15:57;5.90;;;4.53;;
6053;SDS011;3055;50.886;14.814;2023-06-24T14:18:25;7.07;;;5.20;;
6053;SDS011;3055;50.886;14.814;2023-06-24T14:20:52;4.87;;;4.47;;
6053;SDS011;3055;50.886;14.814;2023-06-24T14:23:20;5.13;;;4.30;;
6053;SDS011;3055;50.886;14.814;2023-06-24T14:25:51;5.53;;;4.83;;
6053;SDS011;3055;50.886;14.814;2023-06-24T14:28:18;7.97;;;4.70;;
6053;SDS011;3055;50.886;14.814;2023-06-24T14:30:46;4.97;;;4.47;;
6053;SDS011;3055;50.886;14.814;2023-06-24T14:33:13;6.03;;;4.73;;
6053;SDS011;3055;50.886;14.814;2023-06-24T14:35:40;6.53;;;4.70;;
6053;SDS011;3055;50.886;14.814;2023-06-24T14:38:08;5.13;;;4.63;;
6053;SDS011;3055;50.886;14.814;2023-06-24T14:40:36;5.03;;;4.30;;
6053;SDS011;3055;50.886;14.814;2023-06-24T14:43:04;7.20;;;4.93;;
6053;SDS011;3055;50.886;14.814;2023-06-24T14:45:30;5.30;;;4.77;;
6053;SDS011;3055;50.886;14.814;2023-06-24T14:47:58;7.13;;;4.20;;
6053;SDS011;3055;50.886;14.814;2023-06-24T14:50:25;5.80;;;5.03;;
6053;SDS011;3055;50.886;14.814;2023-06-24T14:52:52;7.33;;;4.87;;
6053;SDS011;3055;50.886;14.814;2023-06-24T14:55:19;5.30;;;4.13;;
6053;SDS011;3055;50.886;14.814;2023-06-24T14:57:47;7.37;;;5.00;;
6053;SDS011;3055;50.886;14.814;2023-06-24T15:00:15;5.13;;;4.63;;
6053;SDS011;3055;50.886;14.814;2023-06-24T15:02:42;5.87;;;5.10;;
6053;SDS011;3055;50.886;14.814;2023-06-24T15:05:09;7.23;;;5.23;;
6053;SDS011;3055;50.886;14.814;2023-06-24T15:07:36;5.20;;;4.70;;
6053;SDS011;3055;50.886;14.814;2023-06-24T15:10:04;6.87;;;5.03;;
6053;SDS011;3055;50.886;14.814;2023-06-24T15:12:31;5.87;;;5.03;;
6053;SDS011;3055;50.886;14.814;2023-06-24T15:15:01;5.70;;;5.17;;